sensor_id;sensor_type;location;lat;lon;timestamp;temperature;humidity
17529;DHT22;8882;53.192;8.184;2023-11-19T05:16:05;10.80;99.90
17529;DHT22;8882;53.192;8.184;2023-11-19T05:18:31;10.70;99.90
17529;DHT22;8882;53.192;8.184;2023-11-19T05:20:56;10.80;99.90
17529;DHT22;8882;53.192;8.184;2023-11-19T05:23:22;10.70;99.90
17529;DHT22;8882;53.192;8.184;2023-11-19T05:25:47;10.70;99.90
17529;DHT22;8882;53.192;8.184;2023-11-19T05:28:13;10.80;99.90
17529;DHT22;8882;53.192;8.184;2023-11-19T05:30:39;10.70;99.90
17529;DHT22;8882;53.192;8.184;2023-11-19T05:33:05;10.80;99.90
17529;DHT22;8882;53.192;8.184;2023-11-19T05:35:31;10.80;99.90
17529;DHT22;8882;53.192;8.184;2023-11-19T05:37:57;10.80;99.90
17529;DHT22;8882;53.192;8.184;2023-11-19T05:40:23;10.80;99.90
17529;DHT22;8882;53.192;8.184;2023-11-19T05:42:49;10.80;99.90
17529;DHT22;8882;53.192;8.184;2023-11-19T05:45:14;10.80;99.90
17529;DHT22;8882;53.192;8.184;2023-11-19T05:47:41;10.70;99.90
17529;DHT22;8882;53.192;8.184;2023-11-19T05:50:07;10.80;99.90
17529;DHT22;8882;53.192;8.184;2023-11-19T05:52:33;10.80;99.90
17529;DHT22;8882;53.192;8.184;2023-11-19T05:55:00;10.80;99.90
17529;DHT22;8882;53.192;8.184;2023-11-19T05:57:29;10.80;99.90
17529;DHT22;8882;53.192;8.184;2023-11-19T05:59:55;10.80;99.90
17529;DHT22;8882;53.192;8.184;2023-11-19T06:02:20;10.80;99.90
17529;DHT22;8882;53.192;8.184;2023-11-19T06:04:46;10.80;99.90
17529;DHT22;8882;53.192;8.184;2023-11-19T06:07:13;10.80;99.90
17529;DHT22;8882;53.192;8.184;2023-11-19T06:09:41;10.80;99.90
17529;DHT22;8882;53.192;8.184;2023-11-19T06:12:06;10.80;99.90
17529;DHT22;8882;53.192;8.184;2023-11-19T06:14:32;10.70;99.90
17529;DHT22;8882;53.192;8.184;2023-11-19T06:16:58;10.70;99.90
17529;DHT22;8882;53.192;8.184;2023-11-19T06:19:23;10.80;99.90
17529;DHT22;8882;53.192;8.184;2023-11-19T06:21:50;10.80;99.90
17529;DHT22;8882;53.192;8.184;2023-11-19T06:24:16;10.70;99.90
17529;DHT22;8882;53.192;8.184;2023-11-19T06:26:41;10.80;99.90
17529;DHT22;8882;53.192;8.184;2023-11-19T06:29:07;10.80;99.90
17529;DHT22;8882;53.192;8.184;2023-11-19T06:31:32;10.80;99.90
17529;DHT22;8882;53.192;8.184;2023-11-19T06:33:58;10.80;99.90
17529;DHT22;8882;53.192;8.184;2023-11-19T06:36:24;10.80;99.90
17529;DHT22;8882;53.192;8.184;2023-11-19T06:38:49;10.80;99.90
17529;DHT22;8882;53.192;8.184;2023-11-19T06:41:15;10.90;99.90
17529;DHT22;8882;53.192;8.184;2023-11-19T06:43:40;10.90;99.90
17529;DHT22;8882;53.192;8.184;2023-11-19T06:46:13;10.90;99.90
17529;DHT22;8882;53.192;8.184;2023-11-19T06:48:39;10.80;99.90
17529;DHT22;8882;53.192;8.184;2023-11-19T06:51:05;10.80;99.90
17529;DHT22;8882;53.192;8.184;2023-11-19T06:53:31;10.80;99.90
17529;DHT22;8882;53.192;8.184;2023-11-19T06:55:56;10.80;99.90
17529;DHT22;8882;53.192;8.184;2023-11-19T06:58:22;10.80;99.90
17529;DHT22;8882;53.192;8.184;2023-11-19T07:00:47;10.80;99.90
17529;DHT22;8882;53.192;8.184;2023-11-19T07:03:14;10.80;99.90
17529;DHT22;8882;53.192;8.184;2023-11-19T07:05:41;10.80;99.90
17529;DHT22;8882;53.192;8.184;2023-11-19T07:08:06;10.80;99.90
17529;DHT22;8882;53.192;8.184;2023-11-19T07:10:35;10.80;99.90
17529;DHT22;8882;53.192;8.184;2023-11-19T07:13:00;10.80;99.90
17529;DHT22;8882;53.192;8.184;2023-11-19T07:15:26;10.80;99.90
17529;DHT22;8882;53.192;8.184;2023-11-19T07:17:52;10.80;99.90
17529;DHT22;8882;53.192;8.184;2023-11-19T07:20:19;10.80;99.90
17529;DHT22;8882;53.192;8.184;2023-11-19T07:22:45;10.80;99.90
17529;DHT22;8882;53.192;8.184;2023-11-19T07:25:14;10.80;99.90
17529;DHT22;8882;53.192;8.184;2023-11-19T07:27:39;10.80;99.90
17529;DHT22;8882;53.192;8.184;2023-11-19T07:30:06;10.80;99.90
17529;DHT22;8882;53.192;8.184;2023-11-19T07:32:33;10.80;99.90
17529;DHT22;8882;53.192;8.184;2023-11-19T07:34:58;10.80;99.90
17529;DHT22;8882;53.192;8.184;2023-11-19T07:37:24;10.90;99.90
17529;DHT22;8882;53.192;8.184;2023-11-19T07:39:50;10.90;99.90
17529;DHT22;8882;53.192;8.184;2023-11-19T07:42:15;10.90;99.90
17529;DHT22;8882;53.192;8.184;2023-11-19T07:44:41;10.90;99.90
17529;DHT22;8882;53.192;8.184;2023-11-19T07:47:07;10.90;99.90
17529;DHT22;8882;53.192;8.184;2023-11-19T07:49:32;10.90;99.90
17529;DHT22;8882;53.192;8.184;2023-11-19T07:51:58;10.90;99.90
17529;DHT22;8882;53.192;8.184;2023-11-19T07:54:24;10.80;99.90
17529;DHT22;8882;53.192;8.184;2023-11-19T07:56:49;10.90;99.90
17529;DHT22;8882;53.192;8.184;2023-11-19T07:59:15;10.80;99.90
17529;DHT22;8882;53.192;8.184;2023-11-19T08:01:41;10.90;99.90
17529;DHT22;8882;53.192;8.184;2023-11-19T08:04:06;10.90;99.90
17529;DHT22;8882;53.192;8.184;2023-11-19T08:06:32;10.80;99.90
17529;DHT22;8882;53.192;8.184;2023-11-19T08:08:57;10.80;99.90
17529;DHT22;8882;53.192;8.184;2023-11-19T08:11:23;10.80;99.90
17529;DHT22;8882;53.192;8.184;2023-11-19T08:13:49;10.80;99.90
17529;DHT22;8882;53.192;8.184;2023-11-19T08:16:15;10.90;99.90
17529;DHT22;8882;53.192;8.184;2023-11-19T08:18:43;10.90;99.90
17529;DHT22;8882;53.192;8.184;2023-11-19T08:21:09;11.00;99.90
17529;DHT22;8882;53.192;8.184;2023-11-19T08:23:35;10.90;99.90
17529;DHT22;8882;53.192;8.184;2023-11-19T08:26:01;11.00;99.90
17529;DHT22;8882;53.192;8.184;2023-11-19T08:28:27;11.00;99.90
17529;DHT22;8882;53.192;8.184;2023-11-19T08:30:53;11.00;99.90
17529;DHT22;8882;53.192;8.184;2023-11-19T08:33:18;11.00;99.90
17529;DHT22;8882;53.192;8.184;2023-11-19T08:35:44;11.00;99.90
17529;DHT22;8882;53.192;8.184;2023-11-19T08:38:10;11.00;99.90
17529;DHT22;8882;53.192;8.184;2023-11-19T08:40:36;11.00;99.90
17529;DHT22;8882;53.192;8.184;2023-11-19T08:43:02;11.00;99.90
17529;DHT22;8882;53.192;8.184;2023-11-19T08:45:28;11.00;99.90
17529;DHT22;8882;53.192;8.184;2023-11-19T08:47:53;11.00;99.90
17529;DHT22;8882;53.192;8.184;2023-11-19T08:50:19;11.10;99.90
17529;DHT22;8882;53.192;8.184;2023-11-19T08:52:44;11.10;99.90
17529;DHT22;8882;53.192;8.184;2023-11-19T08:55:10;11.10;99.90
17529;DHT22;8882;53.192;8.184;2023-11-19T08:57:37;11.20;99.90
17529;DHT22;8882;53.192;8.184;2023-11-19T09:00:02;11.20;99.90
17529;DHT22;8882;53.192;8.184;2023-11-19T09:02:33;11.20;99.90
17529;DHT22;8882;53.192;8.184;2023-11-19T09:04:59;11.20;99.90
17529;DHT22;8882;53.192;8.184;2023-11-19T09:07:24;11.20;99.90
17529;DHT22;8882;53.192;8.184;2023-11-19T09:09:50;11.20;99.90
17529;DHT22;8882;53.192;8.184;2023-11-19T09:12:15;11.20;99.90
17529;DHT22;8882;53.192;8.184;2023-11-19T09:14:41;11.20;99.90
17529;DHT22;8882;53.192;8.184;2023-11-19T09:17:07;11.20;99.90
17529;DHT22;8882;53.192;8.184;2023-11-19T09:19:33;11.20;99.90
17529;DHT22;8882;53.192;8.184;2023-11-19T09:22:00;11.20;99.90
17529;DHT22;8882;53.192;8.184;2023-11-19T09:24:25;11.20;99.90
17529;DHT22;8882;53.192;8.184;2023-11-19T09:26:51;11.30;99.90
17529;DHT22;8882;53.192;8.184;2023-11-19T09:29:16;11.30;99.90
17529;DHT22;8882;53.192;8.184;2023-11-19T09:31:42;11.30;99.90
17529;DHT22;8882;53.192;8.184;2023-11-19T09:34:07;11.30;99.90
17529;DHT22;8882;53.192;8.184;2023-11-19T09:36:33;11.30;99.90
17529;DHT22;8882;53.192;8.184;2023-11-19T09:38:58;11.30;99.90
17529;DHT22;8882;53.192;8.184;2023-11-19T09:41:26;11.30;99.90
17529;DHT22;8882;53.192;8.184;2023-11-19T09:43:53;11.30;99.90
17529;DHT22;8882;53.192;8.184;2023-11-19T09:46:19;11.30;99.90
17529;DHT22;8882;53.192;8.184;2023-11-19T09:48:46;11.30;99.90
17529;DHT22;8882;53.192;8.184;2023-11-19T09:51:13;11.30;99.90
17529;DHT22;8882;53.192;8.184;2023-11-19T09:53:39;11.30;99.90
17529;DHT22;8882;53.192;8.184;2023-11-19T09:56:05;11.20;99.90
17529;DHT22;8882;53.192;8.184;2023-11-19T09:58:31;11.30;99.90
17529;DHT22;8882;53.192;8.184;2023-11-19T10:00:58;11.20;99.90
17529;DHT22;8882;53.192;8.184;2023-11-19T10:03:33;11.30;99.90
17529;DHT22;8882;53.192;8.184;2023-11-19T10:06:09;11.20;99.90
17529;DHT22;8882;53.192;8.184;2023-11-19T10:08:37;11.20;99.90
17529;DHT22;8882;53.192;8.184;2023-11-19T10:11:05;11.20;99.90
17529;DHT22;8882;53.192;8.184;2023-11-19T10:13:31;11.10;99.90
17529;DHT22;8882;53.192;8.184;2023-11-19T10:15:56;11.10;99.90
17529;DHT22;8882;53.192;8.184;2023-11-19T10:18:28;11.10;99.90
17529;DHT22;8882;53.192;8.184;2023-11-19T10:20:53;11.10;99.90
17529;DHT22;8882;53.192;8.184;2023-11-19T10:23:21;11.10;99.90
17529;DHT22;8882;53.192;8.184;2023-11-19T10:25:46;11.10;99.90
17529;DHT22;8882;53.192;8.184;2023-11-19T10:28:15;11.20;99.90
17529;DHT22;8882;53.192;8.184;2023-11-19T10:30:42;11.10;99.90
17529;DHT22;8882;53.192;8.184;2023-11-19T10:33:12;11.20;99.90
17529;DHT22;8882;53.192;8.184;2023-11-19T10:35:56;11.20;99.90
17529;DHT22;8882;53.192;8.184;2023-11-19T10:38:23;11.20;99.90
17529;DHT22;8882;53.192;8.184;2023-11-19T10:40:49;11.20;99.90
17529;DHT22;8882;53.192;8.184;2023-11-19T10:43:19;11.20;99.90
17529;DHT22;8882;53.192;8.184;2023-11-19T10:45:45;11.10;99.90
17529;DHT22;8882;53.192;8.184;2023-11-19T10:48:10;11.20;99.90
17529;DHT22;8882;53.192;8.184;2023-11-19T10:50:39;11.30;99.90
17529;DHT22;8882;53.192;8.184;2023-11-19T10:53:06;11.30;99.90
17529;DHT22;8882;53.192;8.184;2023-11-19T10:55:33;11.40;99.90
17529;DHT22;8882;53.192;8.184;2023-11-19T10:58:07;11.40;99.90
17529;DHT22;8882;53.192;8.184;2023-11-19T11:00:57;11.40;99.90
17529;DHT22;8882;53.192;8.184;2023-11-19T11:03:25;11.40;99.90
17529;DHT22;8882;53.192;8.184;2023-11-19T11:05:52;11.40;99.90
17529;DHT22;8882;53.192;8.184;2023-11-19T11:08:19;11.40;99.90
17529;DHT22;8882;53.192;8.184;2023-11-19T11:10:52;11.40;99.90
17529;DHT22;8882;53.192;8.184;2023-11-19T11:13:18;11.40;99.90
17529;DHT22;8882;53.192;8.184;2023-11-19T11:15:44;11.40;99.90
17529;DHT22;8882;53.192;8.184;2023-11-19T11:18:12;11.40;99.90
17529;DHT22;8882;53.192;8.184;2023-11-19T11:20:39;11.40;99.90
17529;DHT22;8882;53.192;8.184;2023-11-19T11:31:43;11.40;99.90
17529;DHT22;8882;53.192;8.184;2023-11-19T11:34:24;11.40;99.90
17529;DHT22;8882;53.192;8.184;2023-11-19T11:37:21;11.40;99.90
17529;DHT22;8882;53.192;8.184;2023-11-19T11:39:51;11.40;99.90
17529;DHT22;8882;53.192;8.184;2023-11-19T11:45:02;11.40;99.90
17529;DHT22;8882;53.192;8.184;2023-11-19T11:50:22;11.30;99.90
17529;DHT22;8882;53.192;8.184;2023-11-19T11:57:58;11.30;99.90
17529;DHT22;8882;53.192;8.184;2023-11-19T12:00:36;11.30;99.90
17529;DHT22;8882;53.192;8.184;2023-11-19T12:03:06;11.30;99.90
17529;DHT22;8882;53.192;8.184;2023-11-19T12:05:32;11.30;99.90
17529;DHT22;8882;53.192;8.184;2023-11-19T12:08:06;11.20;99.90
17529;DHT22;8882;53.192;8.184;2023-11-19T12:10:52;11.20;99.90
17529;DHT22;8882;53.192;8.184;2023-11-19T12:13:20;11.20;99.90
17529;DHT22;8882;53.192;8.184;2023-11-19T12:18:31;11.20;99.90
17529;DHT22;8882;53.192;8.184;2023-11-19T12:20:58;11.20;99.90
17529;DHT22;8882;53.192;8.184;2023-11-19T12:23:29;11.20;99.90
17529;DHT22;8882;53.192;8.184;2023-11-19T12:25:55;11.20;99.90
17529;DHT22;8882;53.192;8.184;2023-11-19T12:28:21;11.20;99.90
17529;DHT22;8882;53.192;8.184;2023-11-19T12:30:47;11.20;99.90
17529;DHT22;8882;53.192;8.184;2023-11-19T12:33:13;11.10;99.90
17529;DHT22;8882;53.192;8.184;2023-11-19T12:35:43;11.10;99.90
17529;DHT22;8882;53.192;8.184;2023-11-19T12:38:22;11.10;99.90
17529;DHT22;8882;53.192;8.184;2023-11-19T12:41:08;11.00;99.90
17529;DHT22;8882;53.192;8.184;2023-11-19T12:43:35;11.00;99.90
17529;DHT22;8882;53.192;8.184;2023-11-19T12:46:36;11.00;99.90
17529;DHT22;8882;53.192;8.184;2023-11-19T12:48:55;11.00;99.90
17529;DHT22;8882;53.192;8.184;2023-11-19T12:51:20;11.00;99.90
17529;DHT22;8882;53.192;8.184;2023-11-19T12:53:52;11.00;99.90
17529;DHT22;8882;53.192;8.184;2023-11-19T12:56:23;11.00;99.90
17529;DHT22;8882;53.192;8.184;2023-11-19T12:58:49;11.10;99.90
17529;DHT22;8882;53.192;8.184;2023-11-19T13:01:17;11.20;99.90
17529;DHT22;8882;53.192;8.184;2023-11-19T13:03:43;11.20;99.90
17529;DHT22;8882;53.192;8.184;2023-11-19T13:06:11;11.30;99.90
17529;DHT22;8882;53.192;8.184;2023-11-19T13:08:54;11.40;99.90
17529;DHT22;8882;53.192;8.184;2023-11-19T13:11:34;11.40;99.90
17529;DHT22;8882;53.192;8.184;2023-11-19T13:14:02;11.40;99.90
17529;DHT22;8882;53.192;8.184;2023-11-19T13:16:33;11.50;99.90
17529;DHT22;8882;53.192;8.184;2023-11-19T13:19:01;11.50;99.90
17529;DHT22;8882;53.192;8.184;2023-11-19T13:21:27;11.40;99.90
17529;DHT22;8882;53.192;8.184;2023-11-19T13:23:52;11.40;99.90
17529;DHT22;8882;53.192;8.184;2023-11-19T13:26:18;11.40;99.90
17529;DHT22;8882;53.192;8.184;2023-11-19T13:28:43;11.40;99.90
17529;DHT22;8882;53.192;8.184;2023-11-19T13:31:09;11.30;99.90
17529;DHT22;8882;53.192;8.184;2023-11-19T13:33:35;11.20;99.90
17529;DHT22;8882;53.192;8.184;2023-11-19T13:36:01;11.30;99.90
17529;DHT22;8882;53.192;8.184;2023-11-19T13:38:36;11.20;99.90
17529;DHT22;8882;53.192;8.184;2023-11-19T13:41:02;11.20;99.90
17529;DHT22;8882;53.192;8.184;2023-11-19T13:43:30;11.20;99.90
17529;DHT22;8882;53.192;8.184;2023-11-19T13:45:56;11.20;99.90
17529;DHT22;8882;53.192;8.184;2023-11-19T13:48:22;11.20;99.90
17529;DHT22;8882;53.192;8.184;2023-11-19T13:50:48;11.20;99.90
17529;DHT22;8882;53.192;8.184;2023-11-19T13:53:14;11.20;99.90
17529;DHT22;8882;53.192;8.184;2023-11-19T13:55:39;11.20;99.90
17529;DHT22;8882;53.192;8.184;2023-11-19T13:58:05;11.20;99.90
17529;DHT22;8882;53.192;8.184;2023-11-19T14:00:30;11.30;99.90
17529;DHT22;8882;53.192;8.184;2023-11-19T14:02:56;11.30;99.90
17529;DHT22;8882;53.192;8.184;2023-11-19T14:05:21;11.30;99.90
17529;DHT22;8882;53.192;8.184;2023-11-19T14:07:48;11.30;99.90
17529;DHT22;8882;53.192;8.184;2023-11-19T14:10:14;11.30;99.90
17529;DHT22;8882;53.192;8.184;2023-11-19T14:12:41;11.30;99.90
17529;DHT22;8882;53.192;8.184;2023-11-19T14:15:11;11.30;99.90
17529;DHT22;8882;53.192;8.184;2023-11-19T14:17:39;11.20;99.90
17529;DHT22;8882;53.192;8.184;2023-11-19T14:20:06;11.30;99.90
17529;DHT22;8882;53.192;8.184;2023-11-19T14:22:43;11.30;99.90
17529;DHT22;8882;53.192;8.184;2023-11-19T14:25:09;11.30;99.90
17529;DHT22;8882;53.192;8.184;2023-11-19T14:27:39;11.30;99.90
17529;DHT22;8882;53.192;8.184;2023-11-19T14:30:06;11.40;99.90
17529;DHT22;8882;53.192;8.184;2023-11-19T14:32:32;11.40;99.90
17529;DHT22;8882;53.192;8.184;2023-11-19T14:34:57;11.40;99.90
17529;DHT22;8882;53.192;8.184;2023-11-19T14:37:23;11.50;99.90
17529;DHT22;8882;53.192;8.184;2023-11-19T14:39:48;11.50;99.90
17529;DHT22;8882;53.192;8.184;2023-11-19T14:42:16;11.50;99.90
17529;DHT22;8882;53.192;8.184;2023-11-19T14:44:41;11.70;99.90
17529;DHT22;8882;53.192;8.184;2023-11-19T14:47:07;12.00;99.90
17529;DHT22;8882;53.192;8.184;2023-11-19T14:49:35;12.00;99.90
17529;DHT22;8882;53.192;8.184;2023-11-19T14:52:00;12.00;99.90
17529;DHT22;8882;53.192;8.184;2023-11-19T14:54:26;11.90;99.90
17529;DHT22;8882;53.192;8.184;2023-11-19T14:56:51;11.80;99.90
17529;DHT22;8882;53.192;8.184;2023-11-19T14:59:18;11.80;99.90
17529;DHT22;8882;53.192;8.184;2023-11-19T15:01:45;11.70;99.90
17529;DHT22;8882;53.192;8.184;2023-11-19T15:04:11;11.70;99.90
17529;DHT22;8882;53.192;8.184;2023-11-19T15:06:37;11.60;99.90
17529;DHT22;8882;53.192;8.184;2023-11-19T15:09:04;11.50;99.90
17529;DHT22;8882;53.192;8.184;2023-11-19T15:11:29;11.40;99.90
17529;DHT22;8882;53.192;8.184;2023-11-19T15:13:55;11.40;99.90
17529;DHT22;8882;53.192;8.184;2023-11-19T15:16:21;11.30;99.90
17529;DHT22;8882;53.192;8.184;2023-11-19T15:18:57;11.30;99.90
17529;DHT22;8882;53.192;8.184;2023-11-19T15:21:29;11.20;99.90
17529;DHT22;8882;53.192;8.184;2023-11-19T15:23:55;11.20;99.90
17529;DHT22;8882;53.192;8.184;2023-11-19T15:26:21;11.20;99.90
17529;DHT22;8882;53.192;8.184;2023-11-19T15:28:47;11.20;99.90
17529;DHT22;8882;53.192;8.184;2023-11-19T15:31:12;11.20;99.90
17529;DHT22;8882;53.192;8.184;2023-11-19T15:33:40;11.20;99.90
17529;DHT22;8882;53.192;8.184;2023-11-19T15:36:06;11.20;99.90
17529;DHT22;8882;53.192;8.184;2023-11-19T15:38:36;11.20;99.90
17529;DHT22;8882;53.192;8.184;2023-11-19T15:41:02;11.20;99.90
17529;DHT22;8882;53.192;8.184;2023-11-19T15:43:28;11.20;99.90
17529;DHT22;8882;53.192;8.184;2023-11-19T15:45:54;11.10;99.90
17529;DHT22;8882;53.192;8.184;2023-11-19T15:48:20;11.10;99.90
17529;DHT22;8882;53.192;8.184;2023-11-19T15:50:45;11.10;99.90
17529;DHT22;8882;53.192;8.184;2023-11-19T15:53:11;11.10;99.90
17529;DHT22;8882;53.192;8.184;2023-11-19T15:55:36;11.00;99.90
17529;DHT22;8882;53.192;8.184;2023-11-19T15:58:02;11.00;99.90
17529;DHT22;8882;53.192;8.184;2023-11-19T16:00:28;11.00;99.90
17529;DHT22;8882;53.192;8.184;2023-11-19T16:02:54;10.90;99.90
17529;DHT22;8882;53.192;8.184;2023-11-19T16:05:22;10.90;99.90
17529;DHT22;8882;53.192;8.184;2023-11-19T16:07:49;10.90;99.90
17529;DHT22;8882;53.192;8.184;2023-11-19T16:10:15;10.90;99.90
17529;DHT22;8882;53.192;8.184;2023-11-19T16:12:41;10.90;99.90
17529;DHT22;8882;53.192;8.184;2023-11-19T16:15:07;10.90;99.90
17529;DHT22;8882;53.192;8.184;2023-11-19T16:17:35;10.80;99.90
17529;DHT22;8882;53.192;8.184;2023-11-19T16:20:02;10.80;99.90
17529;DHT22;8882;53.192;8.184;2023-11-19T16:22:32;10.80;99.90
17529;DHT22;8882;53.192;8.184;2023-11-19T16:24:58;10.80;99.90
17529;DHT22;8882;53.192;8.184;2023-11-19T16:27:23;10.70;99.90
17529;DHT22;8882;53.192;8.184;2023-11-19T16:29:50;10.80;99.90
17529;DHT22;8882;53.192;8.184;2023-11-19T16:32:15;10.80;99.90
17529;DHT22;8882;53.192;8.184;2023-11-19T16:34:41;10.70;99.90
17529;DHT22;8882;53.192;8.184;2023-11-19T16:37:09;10.80;99.90
17529;DHT22;8882;53.192;8.184;2023-11-19T16:39:35;10.80;99.90
17529;DHT22;8882;53.192;8.184;2023-11-19T16:42:01;10.80;99.90
17529;DHT22;8882;53.192;8.184;2023-11-19T16:44:26;10.80;99.90
17529;DHT22;8882;53.192;8.184;2023-11-19T16:46:51;10.80;99.90
17529;DHT22;8882;53.192;8.184;2023-11-19T16:49:17;10.80;99.90
17529;DHT22;8882;53.192;8.184;2023-11-19T16:51:46;10.80;99.90
17529;DHT22;8882;53.192;8.184;2023-11-19T16:54:13;10.80;99.90
17529;DHT22;8882;53.192;8.184;2023-11-19T16:56:41;10.80;99.90
17529;DHT22;8882;53.192;8.184;2023-11-19T16:59:07;10.70;99.90
17529;DHT22;8882;53.192;8.184;2023-11-19T17:01:32;10.70;99.90
17529;DHT22;8882;53.192;8.184;2023-11-19T17:03:58;10.80;99.90
17529;DHT22;8882;53.192;8.184;2023-11-19T17:06:24;10.80;99.90
17529;DHT22;8882;53.192;8.184;2023-11-19T17:08:49;10.80;99.90
17529;DHT22;8882;53.192;8.184;2023-11-19T17:11:15;10.70;99.90
17529;DHT22;8882;53.192;8.184;2023-11-19T17:13:40;10.70;99.90
17529;DHT22;8882;53.192;8.184;2023-11-19T17:16:06;10.70;99.90
17529;DHT22;8882;53.192;8.184;2023-11-19T17:18:33;10.70;99.90
17529;DHT22;8882;53.192;8.184;2023-11-19T17:20:59;10.70;99.90
17529;DHT22;8882;53.192;8.184;2023-11-19T17:23:26;10.70;99.90
17529;DHT22;8882;53.192;8.184;2023-11-19T17:25:52;10.70;99.90
17529;DHT22;8882;53.192;8.184;2023-11-19T17:28:17;10.70;99.90
17529;DHT22;8882;53.192;8.184;2023-11-19T17:30:43;10.70;99.90
17529;DHT22;8882;53.192;8.184;2023-11-19T17:33:09;10.70;99.90
17529;DHT22;8882;53.192;8.184;2023-11-19T17:35:35;10.70;99.90
17529;DHT22;8882;53.192;8.184;2023-11-19T17:38:01;10.70;99.90
17529;DHT22;8882;53.192;8.184;2023-11-19T17:40:27;10.70;99.90
17529;DHT22;8882;53.192;8.184;2023-11-19T17:42:53;10.70;99.90
17529;DHT22;8882;53.192;8.184;2023-11-19T17:45:19;10.70;99.90
17529;DHT22;8882;53.192;8.184;2023-11-19T17:47:44;10.70;99.90
17529;DHT22;8882;53.192;8.184;2023-11-19T17:50:10;10.70;99.90
17529;DHT22;8882;53.192;8.184;2023-11-19T17:52:36;10.70;99.90
17529;DHT22;8882;53.192;8.184;2023-11-19T17:55:02;10.70;99.90
17529;DHT22;8882;53.192;8.184;2023-11-19T17:57:29;10.70;99.90
17529;DHT22;8882;53.192;8.184;2023-11-19T17:59:55;10.70;99.90
17529;DHT22;8882;53.192;8.184;2023-11-19T18:02:21;10.70;99.90
17529;DHT22;8882;53.192;8.184;2023-11-19T18:04:47;10.70;99.90
17529;DHT22;8882;53.192;8.184;2023-11-19T18:07:16;10.70;99.90
17529;DHT22;8882;53.192;8.184;2023-11-19T18:09:45;10.70;99.90
17529;DHT22;8882;53.192;8.184;2023-11-19T18:12:11;10.70;99.90
17529;DHT22;8882;53.192;8.184;2023-11-19T18:14:39;10.70;99.90
